Nearby METAR Reports

 

KSJC - San Jose, California, USA
Distance from station: NE 9mi, 14km
Updated: Sat, 04-Feb-2023 10:53pm PST
Mostly cloudy
Mostly cloudy
 Wind from SW
Wind: SW 5 mph , 7 km/h
Temperature: 55°F , 13°C
Dew Point: 46°F , 8°C
Humidity: 72%
Barometer: 30.09 inHg , 1019 hPa
Clouds: Mostly cloudy
Visibility: 9 miles , 14 km
Cloud details: Mostly cloudy 3700 ft
2023/02/05 06:53 KSJC 050653Z 23004KT 9SM BKN037 13/08 A3009 RMK AO2 SLP190 T01280083
KRHV - San Jose/Reid, California, USA
Distance from station: ENE 12mi, 19km
Updated: Sat, 04-Feb-2023 9:55pm PST
NOT Current
Overcast
Overcast
 Wind from SSW
Wind: SSW 5 mph , 7 km/h
Temperature: 55°F , 13°C
Dew Point: 52°F , 11°C
Humidity: 88%
Barometer: 30.08 inHg , 1018.6 hPa
Clouds: Overcast
Visibility: 8 miles , 13 km
Cloud details: Overcast 3000 ft
2023/02/05 05:55 KRHV 050555Z 20004KT 8SM OVC030 13/11 A3008 RMK LAST
 
KPAO - Palo Alto, California, USA
Distance from station: NNW 14mi, 23km
Updated: Sat, 04-Feb-2023 8:47pm PST
NOT Current
Mostly cloudy
Mostly cloudy
 Wind from SW
Wind: SW 16 mph , 26 km/h, Gust: 25 mph , 41 km/h
Temperature: 55°F , 13°C
Dew Point: 52°F , 11°C
Humidity: 88%
Barometer: 30.03 inHg , 1016.9 hPa
Clouds: Mostly cloudy
Visibility: 8 miles , 13 km
Cloud details: Mostly cloudy 1900 ft
2023/02/05 04:47 KPAO 050447Z 22014G22KT 8SM BKN019 13/11 A3003 RA RMK LAST
KSQL - San Carlos Airpo, California, USA
Distance from station: NW 21mi, 34km
Updated: Sat, 04-Feb-2023 11:15pm PST
Clear
Clear
 Wind from W
Wind: W 12 mph , 19 km/h, Gust: 20 mph , 31 km/h
Temperature: 54°F , 12°C
Dew Point: 48°F , 9°C
Humidity: 82%
Barometer: 30.10 inHg , 1019.3 hPa
Clouds: Clear
Visibility: 10 miles , 16 km
2023/02/05 07:15 KSQL 050715Z AUTO 27010G17KT 10SM CLR 12/09 A3010 RMK AO2
 
KE16 - San Martin, California, USA
Distance from station: ESE 27mi, 43km
Updated: Sat, 04-Feb-2023 11:15pm PST
Overcast
Overcast
 Wind from SW
Wind: SW 3 mph , 6 km/h
Temperature: 54°F , 12°C
Dew Point: 48°F , 9°C
Humidity: 82%
Barometer: 30.13 inHg , 1020.3 hPa
Clouds: Overcast
Visibility: 10 miles , 16 km
Cloud details: Overcast 2800 ft
2023/02/05 07:15 KE16 050715Z AUTO 23003KT 10SM OVC028 12/09 A3013 RMK AO2
KWVI - Watsonville, California, USA
Distance from station: SSE 27mi, 44km
Updated: Sat, 04-Feb-2023 10:53pm PST
Overcast
Overcast
 Wind from WSW
Wind: WSW 9 mph , 15 km/h
Temperature: 54°F , 12°C
Dew Point: 52°F , 11°C
Humidity: 94%
Barometer: 30.13 inHg , 1020.3 hPa
Clouds: Overcast
Visibility: 10 miles , 16 km
Cloud details: Overcast 2200 ft
2023/02/05 06:53 KWVI 050653Z AUTO 25008KT 10SM OVC022 12/11 A3013 RMK AO2 SLP202 T01170106
 
KHWD - Hayward, California, USA
Distance from station: N 28mi, 44km
Updated: Sat, 04-Feb-2023 10:54pm PST
Mostly cloudy
Mostly cloudy
 Wind from WSW
Wind: WSW 8 mph , 13 km/h
Temperature: 54°F , 12°C
Dew Point: 48°F , 9°C
Humidity: 82%
Barometer: 30.09 inHg , 1019 hPa
Clouds: Mostly cloudy
Visibility: 10 miles , 16 km
Cloud details: Mostly cloudy 5500 ft
2023/02/05 06:54 KHWD 050654Z AUTO 24007KT 10SM BKN055 12/09 A3009 RMK AO2 SLP198 T01220094
KSFO - San Francisco, California, USA
Distance from station: NW 30mi, 49km
Updated: Sat, 04-Feb-2023 10:56pm PST
Partly cloudy
Partly cloudy
 Wind from WSW
Wind: WSW 16 mph , 26 km/h, Gust: 29 mph , 46 km/h
Temperature: 55°F , 13°C
Dew Point: 48°F , 9°C
Humidity: 77%
Barometer: 30.08 inHg , 1018.6 hPa
Clouds: Partly cloudy
Visibility: 10 miles , 16 km
Cloud details: Few Clouds 900 ft
Partly cloudy 2200 ft
Partly cloudy 4700 ft
2023/02/05 06:56 KSFO 050656Z 25014G25KT 10SM FEW009 SCT022 SCT047 13/09 A3008 RMK AO2 PK WND 25028/0604 SLP186 T01280094
 
KHAF - Half Moon Bay, California, USA
Distance from station: WNW 31mi, 50km
Updated: Sat, 04-Feb-2023 11:15pm PST
Mist, Overcast
Mist, Overcast
 Wind from W
Wind: W 8 mph , 13 km/h
Temperature: 54°F , 12°C
Dew Point: 50°F , 10°C
Humidity: 88%
Barometer: 30.11 inHg , 1019.6 hPa
Summary: Mist
Clouds: Overcast
Visibility: 4 miles , 6 km
Cloud details: Partly cloudy 1900 ft
Overcast 5000 ft
2023/02/05 07:15 KHAF 050715Z AUTO 27007KT 4SM BR SCT019 OVC050 12/10 A3011 RMK AO2
KLVK - Livermore, California, USA
Distance from station: NNE 31mi, 51km
Updated: Sat, 04-Feb-2023 11:23pm PST
Overcast
Overcast
 Wind from SW
Wind: SW 13 mph , 20 km/h
Temperature: 52°F , 11°C
Dew Point: 48°F , 9°C
Humidity: 88%
Barometer: 30.09 inHg , 1019 hPa
Clouds: Overcast
Visibility: 10 miles , 16 km
Cloud details: Partly cloudy 2100 ft
Partly cloudy 2600 ft
Overcast 4500 ft
2023/02/05 07:23 KLVK 050723Z AUTO 23011KT 10SM SCT021 SCT026 OVC045 11/09 A3009 RMK AO2 RAE16 P0000 T01110089
 
KOAK - Oakland, California, USA
Distance from station: NNW 33mi, 53km
Updated: Sat, 04-Feb-2023 10:53pm PST
Partly cloudy
Partly cloudy
 Wind from WSW
Wind: WSW 16 mph , 26 km/h
Temperature: 54°F , 12°C
Dew Point: 48°F , 9°C
Humidity: 82%
Barometer: 30.10 inHg , 1019.3 hPa
Clouds: Partly cloudy
Visibility: 10 miles , 16 km
Cloud details: Partly cloudy 2300 ft
Partly cloudy 5000 ft
2023/02/05 06:53 KOAK 050653Z 25014KT 10SM SCT023 SCT050 12/09 A3010 RMK AO2 PK WND 23027/0607 SLP192 T01220094
KCVH - Hollister Muni, California, USA
Distance from station: SE 42mi, 68km
Updated: Sat, 04-Feb-2023 11:15pm PST
Partly cloudy
Partly cloudy
 Wind from SW
Wind: SW 9 mph , 15 km/h
Temperature: 54°F , 12°C
Dew Point: 50°F , 10°C
Humidity: 88%
Barometer: 30.13 inHg , 1020.3 hPa
Clouds: Partly cloudy
Visibility: 10 miles , 16 km
Cloud details: Few Clouds 1800 ft
Partly cloudy 2300 ft
Partly cloudy 3300 ft
2023/02/05 07:15 KCVH 050715Z AUTO 23008KT 10SM FEW018 SCT023 SCT033 12/10 A3013 RMK A01
 
KSNS - Salinas, California, USA
Distance from station: SSE 48mi, 77km
Updated: Sat, 04-Feb-2023 10:53pm PST
Clear
Clear
 Wind from W
Wind: W 9 mph , 15 km/h, Gust: 21 mph , 33 km/h
Temperature: 55°F , 13°C
Dew Point: 52°F , 11°C
Humidity: 88%
Barometer: 30.13 inHg , 1020.3 hPa
Clouds: Clear
Visibility: 10 miles , 16 km
2023/02/05 06:53 KSNS 050653Z AUTO 27008G18KT 10SM CLR 13/11 A3013 RMK AO2 RAE11 SLP212 P0000 T01280106
KMRY - Monterey, California, USA
Distance from station: SSE 49mi, 78km
Updated: Sat, 04-Feb-2023 10:54pm PST
Partly cloudy
Partly cloudy
 Wind from SW
Wind: SW 12 mph , 19 km/h, Gust: 26 mph , 43 km/h
Temperature: 54°F , 12°C
Dew Point: 52°F , 11°C
Humidity: 94%
Barometer: 30.13 inHg , 1020.3 hPa
Clouds: Partly cloudy
Visibility: 10 miles , 16 km
Cloud details: Partly cloudy 1300 ft
Partly cloudy 1800 ft
2023/02/05 06:54 KMRY 050654Z AUTO 23010G23KT 10SM SCT013 SCT018 12/11 A3013 RMK AO2 SLP216 T01220111
 
KCCR - Concord, California, USA
Distance from station: N 50mi, 81km
Updated: Sat, 04-Feb-2023 11:20pm PST
Mostly cloudy
Mostly cloudy
 Wind from WSW
Wind: WSW 15 mph , 24 km/h, Gust: 23 mph , 37 km/h
Temperature: 54°F , 12°C
Dew Point: 48°F , 9°C
Humidity: 82%
Barometer: 30.07 inHg , 1018.3 hPa
Clouds: Mostly cloudy
Visibility: 10 miles , 16 km
Cloud details: Few Clouds 2500 ft
Partly cloudy 3200 ft
Mostly cloudy 5000 ft
2023/02/05 07:20 KCCR 050720Z AUTO 24013G20KT 10SM FEW025 SCT032 BKN050 12/09 A3007 RMK AO2 T01220089